sensor_id;sensor_type;location;lat;lon;timestamp;P1;durP1;ratioP1;P2;durP2;ratioP2
65641;SDS011;52340;-6.720;108.544;2022-07-22T00:00:44;30.42;;;18.63;;
65641;SDS011;52340;-6.720;108.544;2022-07-22T00:01:46;26.65;;;17.85;;
65641;SDS011;52340;-6.720;108.544;2022-07-22T00:02:48;27.88;;;18.33;;
65641;SDS011;52340;-6.720;108.544;2022-07-22T00:03:50;28.80;;;17.70;;
65641;SDS011;52340;-6.720;108.544;2022-07-22T00:04:54;29.20;;;17.92;;
65641;SDS011;52340;-6.720;108.544;2022-07-22T00:05:56;29.17;;;17.23;;
65641;SDS011;52340;-6.720;108.544;2022-07-22T00:06:58;31.23;;;16.40;;
65641;SDS011;52340;-6.720;108.544;2022-07-22T00:08:00;25.73;;;16.08;;
65641;SDS011;52340;-6.720;108.544;2022-07-22T00:09:02;29.83;;;17.30;;
65641;SDS011;52340;-6.720;108.544;2022-07-22T00:10:04;25.85;;;16.48;;
65641;SDS011;52340;-6.720;108.544;2022-07-22T00:11:07;27.58;;;16.65;;
65641;SDS011;52340;-6.720;108.544;2022-07-22T00:12:09;24.73;;;15.63;;
65641;SDS011;52340;-6.720;108.544;2022-07-22T00:13:13;24.58;;;15.52;;
65641;SDS011;52340;-6.720;108.544;2022-07-22T00:14:15;27.25;;;15.77;;
65641;SDS011;52340;-6.720;108.544;2022-07-22T00:15:16;25.63;;;15.75;;
65641;SDS011;52340;-6.720;108.544;2022-07-22T00:16:18;22.90;;;15.55;;
65641;SDS011;52340;-6.720;108.544;2022-07-22T00:17:20;25.60;;;15.63;;
65641;SDS011;52340;-6.720;108.544;2022-07-22T00:18:22;24.67;;;15.40;;
65641;SDS011;52340;-6.720;108.544;2022-07-22T00:19:23;22.10;;;15.15;;
65641;SDS011;52340;-6.720;108.544;2022-07-22T00:20:25;24.23;;;15.35;;
65641;SDS011;52340;-6.720;108.544;2022-07-22T00:21:27;24.25;;;15.38;;
65641;SDS011;52340;-6.720;108.544;2022-07-22T00:22:29;22.55;;;15.73;;
65641;SDS011;52340;-6.720;108.544;2022-07-22T00:23:31;25.70;;;15.65;;
65641;SDS011;52340;-6.720;108.544;2022-07-22T00:24:32;24.77;;;15.18;;
65641;SDS011;52340;-6.720;108.544;2022-07-22T00:25:34;24.10;;;15.55;;
65641;SDS011;52340;-6.720;108.544;2022-07-22T00:26:36;23.60;;;15.43;;
65641;SDS011;52340;-6.720;108.544;2022-07-22T00:27:38;24.35;;;15.52;;
65641;SDS011;52340;-6.720;108.544;2022-07-22T00:28:41;28.67;;;16.38;;
65641;SDS011;52340;-6.720;108.544;2022-07-22T00:29:46;25.27;;;15.77;;
65641;SDS011;52340;-6.720;108.544;2022-07-22T00:30:48;26.75;;;16.15;;
65641;SDS011;52340;-6.720;108.544;2022-07-22T00:31:50;24.05;;;15.35;;
65641;SDS011;52340;-6.720;108.544;2022-07-22T00:32:51;25.67;;;15.18;;
65641;SDS011;52340;-6.720;108.544;2022-07-22T00:33:53;27.15;;;15.90;;
65641;SDS011;52340;-6.720;108.544;2022-07-22T00:34:55;26.25;;;16.50;;
65641;SDS011;52340;-6.720;108.544;2022-07-22T00:35:57;25.17;;;16.10;;
65641;SDS011;52340;-6.720;108.544;2022-07-22T00:37:01;25.13;;;16.45;;
65641;SDS011;52340;-6.720;108.544;2022-07-22T00:38:03;24.75;;;16.75;;
65641;SDS011;52340;-6.720;108.544;2022-07-22T00:41:23;26.55;;;15.70;;
65641;SDS011;52340;-6.720;108.544;2022-07-22T00:42:25;26.80;;;16.75;;
65641;SDS011;52340;-6.720;108.544;2022-07-22T00:43:26;25.08;;;15.45;;
65641;SDS011;52340;-6.720;108.544;2022-07-22T00:44:30;27.40;;;16.33;;
65641;SDS011;52340;-6.720;108.544;2022-07-22T00:45:32;24.95;;;16.42;;
65641;SDS011;52340;-6.720;108.544;2022-07-22T00:46:34;29.15;;;16.85;;
65641;SDS011;52340;-6.720;108.544;2022-07-22T00:47:37;24.73;;;16.02;;
65641;SDS011;52340;-6.720;108.544;2022-07-22T00:48:39;25.30;;;16.08;;
65641;SDS011;52340;-6.720;108.544;2022-07-22T00:49:41;26.23;;;16.45;;
65641;SDS011;52340;-6.720;108.544;2022-07-22T00:50:42;30.08;;;16.23;;
65641;SDS011;52340;-6.720;108.544;2022-07-22T00:51:45;24.27;;;15.82;;
65641;SDS011;52340;-6.720;108.544;2022-07-22T00:52:47;28.23;;;16.58;;
65641;SDS011;52340;-6.720;108.544;2022-07-22T00:53:49;27.55;;;16.42;;
65641;SDS011;52340;-6.720;108.544;2022-07-22T00:54:51;26.25;;;16.00;;
65641;SDS011;52340;-6.720;108.544;2022-07-22T00:55:54;24.23;;;16.08;;
65641;SDS011;52340;-6.720;108.544;2022-07-22T00:56:55;23.98;;;16.15;;
65641;SDS011;52340;-6.720;108.544;2022-07-22T00:57:57;27.05;;;16.20;;
65641;SDS011;52340;-6.720;108.544;2022-07-22T00:59:01;25.13;;;15.18;;
65641;SDS011;52340;-6.720;108.544;2022-07-22T01:00:07;24.95;;;15.30;;
65641;SDS011;52340;-6.720;108.544;2022-07-22T01:01:13;26.20;;;16.05;;
65641;SDS011;52340;-6.720;108.544;2022-07-22T01:02:15;27.80;;;15.63;;
65641;SDS011;52340;-6.720;108.544;2022-07-22T01:03:17;23.77;;;15.38;;
65641;SDS011;52340;-6.720;108.544;2022-07-22T01:04:22;30.13;;;16.50;;
65641;SDS011;52340;-6.720;108.544;2022-07-22T01:05:27;28.65;;;16.92;;
65641;SDS011;52340;-6.720;108.544;2022-07-22T01:06:29;25.42;;;16.70;;
65641;SDS011;52340;-6.720;108.544;2022-07-22T01:07:31;24.45;;;15.30;;
65641;SDS011;52340;-6.720;108.544;2022-07-22T01:08:33;28.35;;;17.15;;
65641;SDS011;52340;-6.720;108.544;2022-07-22T01:09:35;26.20;;;16.05;;
65641;SDS011;52340;-6.720;108.544;2022-07-22T01:10:37;26.55;;;15.98;;
65641;SDS011;52340;-6.720;108.544;2022-07-22T01:11:39;26.55;;;16.48;;
65641;SDS011;52340;-6.720;108.544;2022-07-22T01:12:41;26.23;;;15.73;;
65641;SDS011;52340;-6.720;108.544;2022-07-22T01:13:45;24.80;;;16.38;;
65641;SDS011;52340;-6.720;108.544;2022-07-22T01:14:48;23.38;;;15.55;;
65641;SDS011;52340;-6.720;108.544;2022-07-22T01:15:51;22.45;;;15.43;;
65641;SDS011;52340;-6.720;108.544;2022-07-22T01:16:53;25.02;;;15.20;;
65641;SDS011;52340;-6.720;108.544;2022-07-22T01:17:55;23.83;;;15.48;;
65641;SDS011;52340;-6.720;108.544;2022-07-22T01:18:59;24.70;;;15.73;;
65641;SDS011;52340;-6.720;108.544;2022-07-22T01:20:03;25.85;;;15.90;;
65641;SDS011;52340;-6.720;108.544;2022-07-22T01:21:05;23.63;;;15.05;;
65641;SDS011;52340;-6.720;108.544;2022-07-22T01:22:08;24.02;;;15.05;;
65641;SDS011;52340;-6.720;108.544;2022-07-22T01:23:10;25.25;;;15.75;;
65641;SDS011;52340;-6.720;108.544;2022-07-22T01:24:11;22.02;;;15.55;;
65641;SDS011;52340;-6.720;108.544;2022-07-22T01:25:13;25.33;;;15.25;;
65641;SDS011;52340;-6.720;108.544;2022-07-22T01:26:15;24.00;;;14.93;;
65641;SDS011;52340;-6.720;108.544;2022-07-22T01:27:20;27.95;;;15.93;;
65641;SDS011;52340;-6.720;108.544;2022-07-22T01:28:31;28.77;;;15.93;;
65641;SDS011;52340;-6.720;108.544;2022-07-22T01:29:33;25.77;;;15.32;;
65641;SDS011;52340;-6.720;108.544;2022-07-22T01:30:35;26.10;;;15.85;;
65641;SDS011;52340;-6.720;108.544;2022-07-22T01:31:36;24.88;;;14.98;;
65641;SDS011;52340;-6.720;108.544;2022-07-22T01:32:38;27.45;;;15.68;;
65641;SDS011;52340;-6.720;108.544;2022-07-22T01:33:40;26.13;;;14.95;;
65641;SDS011;52340;-6.720;108.544;2022-07-22T01:34:42;24.02;;;14.25;;
65641;SDS011;52340;-6.720;108.544;2022-07-22T01:35:46;26.35;;;15.15;;
65641;SDS011;52340;-6.720;108.544;2022-07-22T01:36:48;24.55;;;14.88;;
65641;SDS011;52340;-6.720;108.544;2022-07-22T01:37:50;22.55;;;14.23;;
65641;SDS011;52340;-6.720;108.544;2022-07-22T01:38:52;22.15;;;14.30;;
65641;SDS011;52340;-6.720;108.544;2022-07-22T01:39:56;22.98;;;13.27;;
65641;SDS011;52340;-6.720;108.544;2022-07-22T01:41:01;22.38;;;14.07;;
65641;SDS011;52340;-6.720;108.544;2022-07-22T01:42:03;24.63;;;14.13;;
65641;SDS011;52340;-6.720;108.544;2022-07-22T01:43:06;26.40;;;14.63;;
65641;SDS011;52340;-6.720;108.544;2022-07-22T01:44:11;24.55;;;14.23;;
65641;SDS011;52340;-6.720;108.544;2022-07-22T01:45:13;24.17;;;13.40;;
65641;SDS011;52340;-6.720;108.544;2022-07-22T01:46:15;26.33;;;13.85;;
65641;SDS011;52340;-6.720;108.544;2022-07-22T01:47:19;24.80;;;13.55;;
65641;SDS011;52340;-6.720;108.544;2022-07-22T01:48:21;23.15;;;13.07;;
65641;SDS011;52340;-6.720;108.544;2022-07-22T01:49:23;23.38;;;14.43;;
65641;SDS011;52340;-6.720;108.544;2022-07-22T01:50:25;22.52;;;13.30;;
65641;SDS011;52340;-6.720;108.544;2022-07-22T01:51:31;23.00;;;13.32;;
65641;SDS011;52340;-6.720;108.544;2022-07-22T01:52:33;24.67;;;14.48;;
65641;SDS011;52340;-6.720;108.544;2022-07-22T01:53:34;23.10;;;14.63;;
65641;SDS011;52340;-6.720;108.544;2022-07-22T01:54:36;22.75;;;15.63;;
65641;SDS011;52340;-6.720;108.544;2022-07-22T01:55:38;31.48;;;17.75;;
65641;SDS011;52340;-6.720;108.544;2022-07-22T01:56:40;29.35;;;19.35;;
65641;SDS011;52340;-6.720;108.544;2022-07-22T01:57:44;31.65;;;18.98;;
65641;SDS011;52340;-6.720;108.544;2022-07-22T01:58:48;27.67;;;18.15;;
65641;SDS011;52340;-6.720;108.544;2022-07-22T01:59:52;25.45;;;16.90;;
65641;SDS011;52340;-6.720;108.544;2022-07-22T02:00:53;27.00;;;16.92;;
65641;SDS011;52340;-6.720;108.544;2022-07-22T02:01:55;29.13;;;16.45;;
65641;SDS011;52340;-6.720;108.544;2022-07-22T02:02:57;26.27;;;16.92;;
65641;SDS011;52340;-6.720;108.544;2022-07-22T02:03:59;26.60;;;17.25;;
65641;SDS011;52340;-6.720;108.544;2022-07-22T02:05:00;28.70;;;16.83;;
65641;SDS011;52340;-6.720;108.544;2022-07-22T02:06:03;26.25;;;15.38;;
65641;SDS011;52340;-6.720;108.544;2022-07-22T02:07:07;24.75;;;15.63;;
65641;SDS011;52340;-6.720;108.544;2022-07-22T02:08:09;23.45;;;14.43;;
65641;SDS011;52340;-6.720;108.544;2022-07-22T02:09:11;22.63;;;14.60;;
65641;SDS011;52340;-6.720;108.544;2022-07-22T02:10:13;20.58;;;13.40;;
65641;SDS011;52340;-6.720;108.544;2022-07-22T02:11:15;19.20;;;13.20;;
65641;SDS011;52340;-6.720;108.544;2022-07-22T02:12:16;19.63;;;13.43;;
65641;SDS011;52340;-6.720;108.544;2022-07-22T02:13:18;22.38;;;14.27;;
65641;SDS011;52340;-6.720;108.544;2022-07-22T02:14:20;23.88;;;14.85;;
65641;SDS011;52340;-6.720;108.544;2022-07-22T02:15:22;22.92;;;15.23;;
65641;SDS011;52340;-6.720;108.544;2022-07-22T02:16:24;24.63;;;16.08;;
65641;SDS011;52340;-6.720;108.544;2022-07-22T02:17:26;24.58;;;18.48;;
65641;SDS011;52340;-6.720;108.544;2022-07-22T02:18:27;24.17;;;16.92;;
65641;SDS011;52340;-6.720;108.544;2022-07-22T02:19:29;25.70;;;17.30;;
65641;SDS011;52340;-6.720;108.544;2022-07-22T02:20:31;23.33;;;15.80;;
65641;SDS011;52340;-6.720;108.544;2022-07-22T02:21:33;25.45;;;17.55;;
65641;SDS011;52340;-6.720;108.544;2022-07-22T02:22:36;27.27;;;16.63;;
65641;SDS011;52340;-6.720;108.544;2022-07-22T02:23:38;23.75;;;16.30;;
65641;SDS011;52340;-6.720;108.544;2022-07-22T02:24:40;24.52;;;16.30;;
65641;SDS011;52340;-6.720;108.544;2022-07-22T02:25:44;21.63;;;14.57;;
65641;SDS011;52340;-6.720;108.544;2022-07-22T02:26:48;24.58;;;15.65;;
65641;SDS011;52340;-6.720;108.544;2022-07-22T02:30:11;23.10;;;14.52;;
65641;SDS011;52340;-6.720;108.544;2022-07-22T02:31:13;20.02;;;13.45;;
65641;SDS011;52340;-6.720;108.544;2022-07-22T02:32:15;22.33;;;13.15;;
65641;SDS011;52340;-6.720;108.544;2022-07-22T02:33:17;20.08;;;13.77;;
65641;SDS011;52340;-6.720;108.544;2022-07-22T02:34:21;20.75;;;13.07;;
65641;SDS011;52340;-6.720;108.544;2022-07-22T02:35:23;22.02;;;12.68;;
65641;SDS011;52340;-6.720;108.544;2022-07-22T02:36:24;18.42;;;12.60;;
65641;SDS011;52340;-6.720;108.544;2022-07-22T02:37:26;20.23;;;13.10;;
65641;SDS011;52340;-6.720;108.544;2022-07-22T02:38:30;23.30;;;12.45;;
65641;SDS011;52340;-6.720;108.544;2022-07-22T02:39:32;22.25;;;13.27;;
65641;SDS011;52340;-6.720;108.544;2022-07-22T02:40:34;20.88;;;13.05;;
65641;SDS011;52340;-6.720;108.544;2022-07-22T02:41:35;19.08;;;12.82;;
65641;SDS011;52340;-6.720;108.544;2022-07-22T02:42:37;17.70;;;12.65;;
65641;SDS011;52340;-6.720;108.544;2022-07-22T02:43:39;21.60;;;12.77;;
65641;SDS011;52340;-6.720;108.544;2022-07-22T02:44:41;20.05;;;13.10;;
65641;SDS011;52340;-6.720;108.544;2022-07-22T02:45:42;19.90;;;13.38;;
65641;SDS011;52340;-6.720;108.544;2022-07-22T02:46:44;19.85;;;13.00;;
65641;SDS011;52340;-6.720;108.544;2022-07-22T02:47:47;19.50;;;12.18;;
65641;SDS011;52340;-6.720;108.544;2022-07-22T02:48:49;18.88;;;12.77;;
65641;SDS011;52340;-6.720;108.544;2022-07-22T02:49:51;19.10;;;12.07;;
65641;SDS011;52340;-6.720;108.544;2022-07-22T02:50:53;19.63;;;12.40;;
65641;SDS011;52340;-6.720;108.544;2022-07-22T02:51:55;20.98;;;12.40;;
65641;SDS011;52340;-6.720;108.544;2022-07-22T02:52:56;19.33;;;12.73;;
65641;SDS011;52340;-6.720;108.544;2022-07-22T02:54:00;20.00;;;13.00;;
65641;SDS011;52340;-6.720;108.544;2022-07-22T02:55:02;19.63;;;12.93;;
65641;SDS011;52340;-6.720;108.544;2022-07-22T02:56:04;22.50;;;13.30;;
65641;SDS011;52340;-6.720;108.544;2022-07-22T02:57:07;20.00;;;13.25;;
65641;SDS011;52340;-6.720;108.544;2022-07-22T02:58:08;21.05;;;13.25;;
65641;SDS011;52340;-6.720;108.544;2022-07-22T02:59:12;21.33;;;13.32;;
65641;SDS011;52340;-6.720;108.544;2022-07-22T03:00:14;25.50;;;13.27;;
65641;SDS011;52340;-6.720;108.544;2022-07-22T03:01:16;20.45;;;13.02;;
65641;SDS011;52340;-6.720;108.544;2022-07-22T03:02:19;19.80;;;13.00;;
65641;SDS011;52340;-6.720;108.544;2022-07-22T03:03:20;19.77;;;13.48;;
65641;SDS011;52340;-6.720;108.544;2022-07-22T03:04:22;19.27;;;13.93;;
65641;SDS011;52340;-6.720;108.544;2022-07-22T03:05:24;21.13;;;13.43;;
65641;SDS011;52340;-6.720;108.544;2022-07-22T03:06:26;20.45;;;12.98;;
65641;SDS011;52340;-6.720;108.544;2022-07-22T03:07:27;18.80;;;13.48;;
65641;SDS011;52340;-6.720;108.544;2022-07-22T03:08:29;20.70;;;13.32;;
65641;SDS011;52340;-6.720;108.544;2022-07-22T03:09:33;19.65;;;13.20;;
65641;SDS011;52340;-6.720;108.544;2022-07-22T03:10:35;19.58;;;13.63;;
65641;SDS011;52340;-6.720;108.544;2022-07-22T03:11:37;22.23;;;13.40;;
65641;SDS011;52340;-6.720;108.544;2022-07-22T03:12:38;20.10;;;12.68;;
65641;SDS011;52340;-6.720;108.544;2022-07-22T03:13:40;19.23;;;13.45;;
65641;SDS011;52340;-6.720;108.544;2022-07-22T03:14:42;18.17;;;12.55;;
65641;SDS011;52340;-6.720;108.544;2022-07-22T03:15:44;20.60;;;13.50;;
65641;SDS011;52340;-6.720;108.544;2022-07-22T03:16:48;22.63;;;14.15;;
65641;SDS011;52340;-6.720;108.544;2022-07-22T03:17:50;28.55;;;15.50;;
65641;SDS011;52340;-6.720;108.544;2022-07-22T03:18:52;28.73;;;15.95;;
65641;SDS011;52340;-6.720;108.544;2022-07-22T03:19:54;25.50;;;15.60;;
65641;SDS011;52340;-6.720;108.544;2022-07-22T03:20:55;24.58;;;14.15;;
65641;SDS011;52340;-6.720;108.544;2022-07-22T03:21:57;21.02;;;14.50;;
65641;SDS011;52340;-6.720;108.544;2022-07-22T03:22:59;24.15;;;14.80;;
65641;SDS011;52340;-6.720;108.544;2022-07-22T03:24:01;21.25;;;14.30;;
65641;SDS011;52340;-6.720;108.544;2022-07-22T03:25:05;23.00;;;14.63;;
65641;SDS011;52340;-6.720;108.544;2022-07-22T03:26:07;31.10;;;19.92;;
65641;SDS011;52340;-6.720;108.544;2022-07-22T03:27:09;26.90;;;16.38;;
65641;SDS011;52340;-6.720;108.544;2022-07-22T03:28:11;26.70;;;17.08;;
65641;SDS011;52340;-6.720;108.544;2022-07-22T03:29:12;51.63;;;24.13;;
65641;SDS011;52340;-6.720;108.544;2022-07-22T03:30:14;35.15;;;19.70;;
65641;SDS011;52340;-6.720;108.544;2022-07-22T03:31:16;43.25;;;20.30;;
65641;SDS011;52340;-6.720;108.544;2022-07-22T03:32:18;39.63;;;17.83;;
65641;SDS011;52340;-6.720;108.544;2022-07-22T03:33:20;34.28;;;18.70;;
65641;SDS011;52340;-6.720;108.544;2022-07-22T03:34:22;36.55;;;18.48;;
65641;SDS011;52340;-6.720;108.544;2022-07-22T03:35:24;31.70;;;16.95;;
65641;SDS011;52340;-6.720;108.544;2022-07-22T03:36:25;26.65;;;16.08;;
65641;SDS011;52340;-6.720;108.544;2022-07-22T03:37:35;31.98;;;16.75;;
65641;SDS011;52340;-6.720;108.544;2022-07-22T03:38:37;32.78;;;16.13;;
65641;SDS011;52340;-6.720;108.544;2022-07-22T03:39:38;27.55;;;15.65;;
65641;SDS011;52340;-6.720;108.544;2022-07-22T03:40:42;28.90;;;16.38;;
65641;SDS011;52340;-6.720;108.544;2022-07-22T03:41:44;30.30;;;15.70;;
65641;SDS011;52340;-6.720;108.544;2022-07-22T03:42:46;30.58;;;15.80;;
65641;SDS011;52340;-6.720;108.544;2022-07-22T03:43:47;33.80;;;16.33;;
65641;SDS011;52340;-6.720;108.544;2022-07-22T03:44:49;26.45;;;15.77;;
65641;SDS011;52340;-6.720;108.544;2022-07-22T03:45:51;31.73;;;15.68;;
65641;SDS011;52340;-6.720;108.544;2022-07-22T03:46:53;26.15;;;15.82;;
65641;SDS011;52340;-6.720;108.544;2022-07-22T03:47:55;27.63;;;15.73;;
65641;SDS011;52340;-6.720;108.544;2022-07-22T03:48:57;30.33;;;15.57;;
65641;SDS011;52340;-6.720;108.544;2022-07-22T03:49:58;25.10;;;15.13;;
65641;SDS011;52340;-6.720;108.544;2022-07-22T03:51:00;26.85;;;15.10;;
65641;SDS011;52340;-6.720;108.544;2022-07-22T03:52:02;23.88;;;14.90;;
65641;SDS011;52340;-6.720;108.544;2022-07-22T03:53:10;25.20;;;14.32;;
65641;SDS011;52340;-6.720;108.544;2022-07-22T03:54:14;22.38;;;14.23;;
65641;SDS011;52340;-6.720;108.544;2022-07-22T03:55:16;23.75;;;14.35;;
65641;SDS011;52340;-6.720;108.544;2022-07-22T03:56:20;21.90;;;14.20;;
65641;SDS011;52340;-6.720;108.544;2022-07-22T03:57:21;21.75;;;13.90;;
65641;SDS011;52340;-6.720;108.544;2022-07-22T03:58:23;23.48;;;13.77;;
65641;SDS011;52340;-6.720;108.544;2022-07-22T03:59:25;25.85;;;14.70;;
65641;SDS011;52340;-6.720;108.544;2022-07-22T04:00:27;24.10;;;14.32;;
65641;SDS011;52340;-6.720;108.544;2022-07-22T04:01:29;22.80;;;14.50;;
65641;SDS011;52340;-6.720;108.544;2022-07-22T04:02:33;24.30;;;14.40;;
65641;SDS011;52340;-6.720;108.544;2022-07-22T04:03:35;25.45;;;14.63;;
65641;SDS011;52340;-6.720;108.544;2022-07-22T04:04:39;21.95;;;14.68;;
65641;SDS011;52340;-6.720;108.544;2022-07-22T04:05:43;21.75;;;14.05;;
65641;SDS011;52340;-6.720;108.544;2022-07-22T04:06:47;23.25;;;14.90;;
65641;SDS011;52340;-6.720;108.544;2022-07-22T04:07:48;25.10;;;15.02;;
65641;SDS011;52340;-6.720;108.544;2022-07-22T04:10:03;29.13;;;15.02;;
65641;SDS011;52340;-6.720;108.544;2022-07-22T04:11:08;24.98;;;14.75;;
65641;SDS011;52340;-6.720;108.544;2022-07-22T04:12:12;25.98;;;15.23;;
65641;SDS011;52340;-6.720;108.544;2022-07-22T04:13:16;22.52;;;14.48;;
65641;SDS011;52340;-6.720;108.544;2022-07-22T04:14:18;24.95;;;14.80;;
65641;SDS011;52340;-6.720;108.544;2022-07-22T04:15:20;25.63;;;15.65;;
65641;SDS011;52340;-6.720;108.544;2022-07-22T04:16:23;23.27;;;14.35;;
65641;SDS011;52340;-6.720;108.544;2022-07-22T04:17:25;24.40;;;14.77;;
65641;SDS011;52340;-6.720;108.544;2022-07-22T04:18:26;22.92;;;14.85;;
65641;SDS011;52340;-6.720;108.544;2022-07-22T04:19:30;25.60;;;15.27;;
65641;SDS011;52340;-6.720;108.544;2022-07-22T04:20:32;21.95;;;14.82;;
65641;SDS011;52340;-6.720;108.544;2022-07-22T04:21:34;26.75;;;15.13;;
65641;SDS011;52340;-6.720;108.544;2022-07-22T04:22:36;23.85;;;14.57;;
65641;SDS011;52340;-6.720;108.544;2022-07-22T04:23:38;24.67;;;14.82;;
65641;SDS011;52340;-6.720;108.544;2022-07-22T04:24:39;23.38;;;15.13;;
65641;SDS011;52340;-6.720;108.544;2022-07-22T04:25:41;22.27;;;14.23;;
65641;SDS011;52340;-6.720;108.544;2022-07-22T04:26:43;20.85;;;14.68;;
65641;SDS011;52340;-6.720;108.544;2022-07-22T04:27:47;22.13;;;14.48;;
65641;SDS011;52340;-6.720;108.544;2022-07-22T04:28:48;20.70;;;14.85;;
65641;SDS011;52340;-6.720;108.544;2022-07-22T04:29:50;21.75;;;15.23;;
65641;SDS011;52340;-6.720;108.544;2022-07-22T04:30:52;22.90;;;15.15;;
65641;SDS011;52340;-6.720;108.544;2022-07-22T04:31:54;22.58;;;15.35;;
65641;SDS011;52340;-6.720;108.544;2022-07-22T04:32:56;22.80;;;15.48;;
65641;SDS011;52340;-6.720;108.544;2022-07-22T04:33:58;22.83;;;14.98;;
65641;SDS011;52340;-6.720;108.544;2022-07-22T04:35:00;22.50;;;14.32;;
65641;SDS011;52340;-6.720;108.544;2022-07-22T04:36:02;24.15;;;14.73;;
65641;SDS011;52340;-6.720;108.544;2022-07-22T04:37:04;20.17;;;14.35;;
65641;SDS011;52340;-6.720;108.544;2022-07-22T04:38:06;22.15;;;14.88;;
65641;SDS011;52340;-6.720;108.544;2022-07-22T04:39:07;23.63;;;16.23;;
65641;SDS011;52340;-6.720;108.544;2022-07-22T04:40:10;26.38;;;16.95;;
65641;SDS011;52340;-6.720;108.544;2022-07-22T04:41:12;27.77;;;18.33;;
65641;SDS011;52340;-6.720;108.544;2022-07-22T04:42:14;26.40;;;16.27;;
65641;SDS011;52340;-6.720;108.544;2022-07-22T04:43:18;24.40;;;16.13;;
65641;SDS011;52340;-6.720;108.544;2022-07-22T04:44:20;29.83;;;19.00;;
65641;SDS011;52340;-6.720;108.544;2022-07-22T04:45:22;28.92;;;19.40;;
65641;SDS011;52340;-6.720;108.544;2022-07-22T04:46:23;29.48;;;18.45;;
65641;SDS011;52340;-6.720;108.544;2022-07-22T04:47:25;27.85;;;17.10;;
65641;SDS011;52340;-6.720;108.544;2022-07-22T04:48:27;27.35;;;17.48;;
65641;SDS011;52340;-6.720;108.544;2022-07-22T04:49:29;24.55;;;15.63;;
65641;SDS011;52340;-6.720;108.544;2022-07-22T04:50:31;23.67;;;15.63;;
65641;SDS011;52340;-6.720;108.544;2022-07-22T04:51:32;23.52;;;15.68;;
65641;SDS011;52340;-6.720;108.544;2022-07-22T04:52:34;26.70;;;15.75;;
65641;SDS011;52340;-6.720;108.544;2022-07-22T04:53:36;24.45;;;15.32;;
65641;SDS011;52340;-6.720;108.544;2022-07-22T04:54:40;23.50;;;15.32;;
65641;SDS011;52340;-6.720;108.544;2022-07-22T04:55:42;22.98;;;15.70;;
65641;SDS011;52340;-6.720;108.544;2022-07-22T04:56:44;23.67;;;15.38;;
65641;SDS011;52340;-6.720;108.544;2022-07-22T04:57:45;22.10;;;15.00;;
65641;SDS011;52340;-6.720;108.544;2022-07-22T04:58:51;25.52;;;15.40;;
65641;SDS011;52340;-6.720;108.544;2022-07-22T04:59:53;23.77;;;14.98;;
65641;SDS011;52340;-6.720;108.544;2022-07-22T05:00:55;25.33;;;15.07;;
65641;SDS011;52340;-6.720;108.544;2022-07-22T05:01:57;23.80;;;15.57;;
65641;SDS011;52340;-6.720;108.544;2022-07-22T05:02:58;27.65;;;14.90;;
65641;SDS011;52340;-6.720;108.544;2022-07-22T05:04:00;23.02;;;14.63;;
65641;SDS011;52340;-6.720;108.544;2022-07-22T05:05:02;23.27;;;15.68;;
65641;SDS011;52340;-6.720;108.544;2022-07-22T05:06:04;26.30;;;15.63;;
65641;SDS011;52340;-6.720;108.544;2022-07-22T05:07:06;26.55;;;16.15;;
65641;SDS011;52340;-6.720;108.544;2022-07-22T05:08:08;26.88;;;15.27;;
65641;SDS011;52340;-6.720;108.544;2022-07-22T05:09:10;25.70;;;15.85;;
65641;SDS011;52340;-6.720;108.544;2022-07-22T05:10:14;23.30;;;15.18;;
65641;SDS011;52340;-6.720;108.544;2022-07-22T05:11:18;21.58;;;15.02;;
65641;SDS011;52340;-6.720;108.544;2022-07-22T05:12:20;24.77;;;15.07;;
65641;SDS011;52340;-6.720;108.544;2022-07-22T05:13:22;23.23;;;14.75;;
65641;SDS011;52340;-6.720;108.544;2022-07-22T05:17:56;21.88;;;14.50;;
65641;SDS011;52340;-6.720;108.544;2022-07-22T05:18:57;21.63;;;14.73;;
65641;SDS011;52340;-6.720;108.544;2022-07-22T05:20:01;21.67;;;14.32;;
65641;SDS011;52340;-6.720;108.544;2022-07-22T05:21:03;24.63;;;14.88;;
65641;SDS011;52340;-6.720;108.544;2022-07-22T05:22:06;24.33;;;15.10;;
65641;SDS011;52340;-6.720;108.544;2022-07-22T05:23:08;24.88;;;17.10;;
65641;SDS011;52340;-6.720;108.544;2022-07-22T05:24:10;24.25;;;15.82;;
65641;SDS011;52340;-6.720;108.544;2022-07-22T05:25:12;29.10;;;18.08;;
65641;SDS011;52340;-6.720;108.544;2022-07-22T05:26:13;26.60;;;17.13;;
65641;SDS011;52340;-6.720;108.544;2022-07-22T05:27:15;27.98;;;18.73;;
65641;SDS011;52340;-6.720;108.544;2022-07-22T05:28:17;23.67;;;16.55;;
65641;SDS011;52340;-6.720;108.544;2022-07-22T05:29:19;28.42;;;18.00;;
65641;SDS011;52340;-6.720;108.544;2022-07-22T05:30:21;29.48;;;19.17;;
65641;SDS011;52340;-6.720;108.544;2022-07-22T05:31:23;31.65;;;18.60;;
65641;SDS011;52340;-6.720;108.544;2022-07-22T05:32:25;29.67;;;19.02;;
65641;SDS011;52340;-6.720;108.544;2022-07-22T05:33:30;27.98;;;18.77;;
65641;SDS011;52340;-6.720;108.544;2022-07-22T05:34:32;30.13;;;19.27;;
65641;SDS011;52340;-6.720;108.544;2022-07-22T05:35:36;31.88;;;19.58;;
65641;SDS011;52340;-6.720;108.544;2022-07-22T05:36:38;26.80;;;18.42;;
65641;SDS011;52340;-6.720;108.544;2022-07-22T05:37:40;25.48;;;16.90;;
65641;SDS011;52340;-6.720;108.544;2022-07-22T05:38:42;25.80;;;16.38;;
65641;SDS011;52340;-6.720;108.544;2022-07-22T05:39:44;24.40;;;15.90;;
65641;SDS011;52340;-6.720;108.544;2022-07-22T05:40:49;21.75;;;15.68;;
65641;SDS011;52340;-6.720;108.544;2022-07-22T05:41:50;21.55;;;15.20;;
65641;SDS011;52340;-6.720;108.544;2022-07-22T05:42:52;23.77;;;14.73;;
65641;SDS011;52340;-6.720;108.544;2022-07-22T05:43:54;22.35;;;15.18;;
65641;SDS011;52340;-6.720;108.544;2022-07-22T05:44:56;23.67;;;14.40;;
65641;SDS011;52340;-6.720;108.544;2022-07-22T05:45:58;21.60;;;15.02;;
65641;SDS011;52340;-6.720;108.544;2022-07-22T05:47:00;24.58;;;15.43;;
65641;SDS011;52340;-6.720;108.544;2022-07-22T05:48:02;24.02;;;15.48;;
65641;SDS011;52340;-6.720;108.544;2022-07-22T05:49:05;23.25;;;15.35;;
65641;SDS011;52340;-6.720;108.544;2022-07-22T05:50:08;25.05;;;15.82;;
65641;SDS011;52340;-6.720;108.544;2022-07-22T05:51:13;23.80;;;16.13;;
65641;SDS011;52340;-6.720;108.544;2022-07-22T05:52:15;25.80;;;17.77;;
65641;SDS011;52340;-6.720;108.544;2022-07-22T05:53:16;24.80;;;17.23;;
65641;SDS011;52340;-6.720;108.544;2022-07-22T05:54:18;28.05;;;17.80;;
65641;SDS011;52340;-6.720;108.544;2022-07-22T05:55:20;25.88;;;16.08;;
65641;SDS011;52340;-6.720;108.544;2022-07-22T05:56:28;27.85;;;17.30;;
65641;SDS011;52340;-6.720;108.544;2022-07-22T05:57:30;25.98;;;16.73;;
65641;SDS011;52340;-6.720;108.544;2022-07-22T05:58:31;24.38;;;16.02;;
65641;SDS011;52340;-6.720;108.544;2022-07-22T05:59:33;24.27;;;17.25;;
65641;SDS011;52340;-6.720;108.544;2022-07-22T06:00:35;25.00;;;16.10;;
65641;SDS011;52340;-6.720;108.544;2022-07-22T06:01:37;25.42;;;15.45;;
65641;SDS011;52340;-6.720;108.544;2022-07-22T06:02:39;25.33;;;16.00;;
65641;SDS011;52340;-6.720;108.544;2022-07-22T06:03:43;24.30;;;15.38;;